Time;durP1;ratioP1;P1;durP2;ratioP2;P2;SDS_P1;SDS_P2;PMS_P1;PMS_P2;Temp;Humidity;BMP_temperature;BMP_pressure;BME280_temperature;BME280_humidity;BME280_pressure;Samples;Min_cycle;Max_cycle;Signal;HPM_P1;HPM_P2
2024/01/17 00:02:30;;;;;;;5.85;1.40;;;;;;;;;;6232398;22;20724;-44
2024/01/17 00:04:59;;;;;;;5.93;1.25;;;;;;;;;;6248913;22;20047;-44
2024/01/17 00:07:27;;;;;;;7.63;1.60;;;;;;;;;;6268111;22;20022;-43
2024/01/17 00:09:55;;;;;;;7.28;1.23;;;;;;;;;;6278954;22;20103;-43
2024/01/17 00:12:22;;;;;;;6.95;1.35;;;;;;;;;;6266769;22;20015;-42
2024/01/17 00:14:50;;;;;;;7.57;1.60;;;;;;;;;;6279936;22;20075;-43
2024/01/17 00:17:18;;;;;;;10.68;1.73;;;;;;;;;;6271266;22;20025;-42
2024/01/17 00:19:48;;;;;;;6.17;1.20;;;;;;;;;;6272416;22;20015;-44
2024/01/17 00:22:17;;;;;;;4.45;1.05;;;;;;;;;;6272760;22;20027;-43
2024/01/17 00:24:45;;;;;;;7.03;1.88;;;;;;;;;;6271325;22;20073;-46
2024/01/17 00:27:13;;;;;;;8.57;1.50;;;;;;;;;;6255069;22;20015;-46
2024/01/17 00:29:46;;;;;;;8.35;1.90;;;;;;;;;;6243855;22;20417;-43
2024/01/17 00:32:22;;;;;;;8.13;1.70;;;;;;;;;;6279239;22;20394;-43
2024/01/17 00:34:50;;;;;;;7.85;2.08;;;;;;;;;;6227995;22;20486;-44
2024/01/17 00:37:19;;;;;;;7.32;1.50;;;;;;;;;;6267209;22;20094;-42
2024/01/17 00:39:47;;;;;;;6.10;1.80;;;;;;;;;;6265801;22;20019;-44
2024/01/17 00:42:15;;;;;;;5.32;1.75;;;;;;;;;;6275130;22;20037;-45
2024/01/17 00:45:03;;;;;;;5.93;1.67;;;;;;;;;;6268524;22;20074;-46
2024/01/17 00:47:31;;;;;;;7.32;1.80;;;;;;;;;;6264126;22;20068;-43
2024/01/17 00:49:59;;;;;;;7.72;2.03;;;;;;;;;;6276661;22;20600;-43
2024/01/17 00:52:28;;;;;;;6.93;1.60;;;;;;;;;;6269302;22;20019;-45
2024/01/17 00:54:56;;;;;;;8.80;1.88;;;;;;;;;;6274190;22;20025;-42
2024/01/17 00:57:24;;;;;;;5.30;1.20;;;;;;;;;;6270139;22;20026;-42
2024/01/17 00:59:52;;;;;;;6.97;1.98;;;;;;;;;;6270707;22;20023;-42
2024/01/17 01:02:20;;;;;;;7.93;1.45;;;;;;;;;;6263485;22;20030;-42
2024/01/17 01:04:47;;;;;;;5.90;1.40;;;;;;;;;;6238718;22;20016;-42
2024/01/17 01:07:16;;;;;;;5.50;1.42;;;;;;;;;;6262218;22;20347;-42
2024/01/17 01:09:45;;;;;;;7.77;1.37;;;;;;;;;;6265258;22;20019;-43
2024/01/17 01:12:30;;;;;;;7.18;1.00;;;;;;;;;;6262920;22;20086;-44
2024/01/17 01:14:58;;;;;;;7.78;1.33;;;;;;;;;;6273807;22;20057;-44
2024/01/17 01:17:26;;;;;;;7.57;1.42;;;;;;;;;;6265776;22;20022;-44
2024/01/17 01:19:54;;;;;;;7.30;1.48;;;;;;;;;;6274764;22;20039;-44
2024/01/17 01:22:22;;;;;;;6.50;1.80;;;;;;;;;;6274164;22;20642;-43
2024/01/17 01:24:56;;;;;;;6.88;1.92;;;;;;;;;;6279247;22;20020;-42
2024/01/17 01:27:23;;;;;;;5.70;1.52;;;;;;;;;;6275582;22;20015;-44
2024/01/17 01:29:51;;;;;;;6.78;1.80;;;;;;;;;;6260942;22;20041;-43
2024/01/17 01:32:22;;;;;;;6.45;1.73;;;;;;;;;;6259538;22;20411;-43
2024/01/17 01:34:50;;;;;;;5.97;1.53;;;;;;;;;;6228733;22;20020;-43
2024/01/17 01:37:35;;;;;;;5.47;1.80;;;;;;;;;;6270482;22;20120;-44
2024/01/17 01:40:07;;;;;;;5.32;1.38;;;;;;;;;;6268316;22;20019;-42
2024/01/17 01:42:36;;;;;;;7.75;2.05;;;;;;;;;;6277097;22;20062;-42
2024/01/17 01:45:06;;;;;;;9.20;1.40;;;;;;;;;;6277201;22;20019;-43
2024/01/17 01:47:34;;;;;;;7.67;1.47;;;;;;;;;;6265161;22;20019;-42
2024/01/17 01:50:05;;;;;;;6.40;1.38;;;;;;;;;;6282020;22;20015;-43
2024/01/17 01:52:33;;;;;;;6.05;1.75;;;;;;;;;;6254594;22;20015;-42
2024/01/17 01:55:01;;;;;;;8.57;1.77;;;;;;;;;;6278320;22;20023;-43
2024/01/17 01:57:31;;;;;;;6.50;1.70;;;;;;;;;;6259342;22;20513;-42
2024/01/17 01:59:59;;;;;;;8.20;1.40;;;;;;;;;;6281044;22;20023;-43
2024/01/17 02:02:27;;;;;;;7.63;1.55;;;;;;;;;;6272659;22;20541;-43
2024/01/17 02:04:55;;;;;;;6.57;1.83;;;;;;;;;;6269763;22;20050;-43
2024/01/17 02:07:23;;;;;;;7.82;1.65;;;;;;;;;;6247386;22;20015;-42
2024/01/17 02:09:51;;;;;;;5.82;1.45;;;;;;;;;;6280632;22;20015;-42
2024/01/17 02:12:19;;;;;;;5.13;1.40;;;;;;;;;;6272961;22;20016;-43
2024/01/17 02:14:48;;;;;;;5.88;1.65;;;;;;;;;;6243490;22;20094;-42
2024/01/17 02:17:17;;;;;;;6.85;1.40;;;;;;;;;;6273907;22;20015;-43
2024/01/17 02:19:45;;;;;;;6.18;1.40;;;;;;;;;;6270232;22;20020;-43
2024/01/17 02:22:13;;;;;;;6.30;1.92;;;;;;;;;;6275157;22;20690;-42
2024/01/17 02:24:42;;;;;;;6.53;1.87;;;;;;;;;;6281200;22;20065;-43
2024/01/17 02:27:10;;;;;;;5.90;1.88;;;;;;;;;;6271895;22;20015;-44
2024/01/17 02:29:38;;;;;;;6.60;2.03;;;;;;;;;;6243301;22;20383;-44
2024/01/17 02:32:07;;;;;;;5.50;1.50;;;;;;;;;;6234180;22;20023;-42
2024/01/17 02:34:34;;;;;;;7.63;1.90;;;;;;;;;;6212361;22;20019;-43
2024/01/17 02:37:03;;;;;;;8.77;1.90;;;;;;;;;;6265179;22;20015;-42
2024/01/17 02:39:31;;;;;;;6.60;1.70;;;;;;;;;;6269393;22;20026;-43
2024/01/17 02:42:00;;;;;;;7.03;1.90;;;;;;;;;;6281457;22;20022;-43
2024/01/17 02:44:28;;;;;;;7.22;1.92;;;;;;;;;;6274840;22;20027;-44
2024/01/17 02:46:56;;;;;;;6.68;1.75;;;;;;;;;;6273880;22;20095;-44
2024/01/17 02:49:23;;;;;;;5.10;1.37;;;;;;;;;;6277865;22;20018;-42
2024/01/17 02:51:52;;;;;;;7.13;1.67;;;;;;;;;;6236170;22;20023;-45
2024/01/17 02:54:19;;;;;;;5.90;1.33;;;;;;;;;;6283435;22;20057;-43
2024/01/17 02:56:50;;;;;;;5.78;1.70;;;;;;;;;;6277458;22;20019;-44
2024/01/17 02:59:20;;;;;;;5.93;1.67;;;;;;;;;;6274423;22;20043;-45
2024/01/17 03:01:48;;;;;;;6.13;1.43;;;;;;;;;;6282118;22;20590;-45
2024/01/17 03:04:15;;;;;;;9.95;1.80;;;;;;;;;;6273524;22;20030;-42
2024/01/17 03:06:45;;;;;;;7.55;2.00;;;;;;;;;;6275809;22;20446;-43
2024/01/17 03:09:13;;;;;;;6.65;1.88;;;;;;;;;;6276904;22;20047;-41
2024/01/17 03:11:42;;;;;;;6.75;1.65;;;;;;;;;;6256031;22;20019;-44
2024/01/17 03:14:10;;;;;;;6.93;1.80;;;;;;;;;;6270688;22;20072;-43
2024/01/17 03:16:40;;;;;;;6.60;2.10;;;;;;;;;;6268334;22;20216;-43
2024/01/17 03:19:07;;;;;;;5.90;1.60;;;;;;;;;;6277402;22;20019;-44
2024/01/17 03:21:36;;;;;;;5.07;1.58;;;;;;;;;;6274058;22;20023;-42
2024/01/17 03:24:06;;;;;;;6.93;2.00;;;;;;;;;;6279905;22;20031;-42
2024/01/17 03:26:34;;;;;;;5.83;1.43;;;;;;;;;;6277074;22;20015;-44
2024/01/17 03:29:02;;;;;;;9.00;1.50;;;;;;;;;;6283192;22;20019;-42
2024/01/17 03:31:29;;;;;;;7.07;1.38;;;;;;;;;;6270575;22;20026;-42
2024/01/17 03:33:58;;;;;;;7.07;1.80;;;;;;;;;;6212784;22;20062;-42
2024/01/17 03:36:26;;;;;;;8.93;2.05;;;;;;;;;;6268139;22;20015;-42
2024/01/17 03:38:54;;;;;;;5.80;1.77;;;;;;;;;;6283925;22;20023;-43
2024/01/17 03:41:22;;;;;;;6.35;1.77;;;;;;;;;;6269640;22;20050;-43
2024/01/17 03:43:51;;;;;;;7.63;2.00;;;;;;;;;;6272080;22;20384;-43
2024/01/17 03:46:18;;;;;;;5.78;1.67;;;;;;;;;;6276792;22;20019;-44
2024/01/17 03:48:46;;;;;;;9.05;2.17;;;;;;;;;;6274514;22;20027;-44
2024/01/17 03:51:15;;;;;;;6.43;1.50;;;;;;;;;;6279495;22;20015;-44
2024/01/17 03:53:46;;;;;;;9.10;1.83;;;;;;;;;;6273151;22;20043;-44
2024/01/17 03:56:14;;;;;;;8.45;2.42;;;;;;;;;;6279253;22;20019;-47
2024/01/17 03:58:42;;;;;;;8.57;2.10;;;;;;;;;;6283925;22;20022;-43
2024/01/17 04:01:11;;;;;;;10.05;2.38;;;;;;;;;;6270647;22;20022;-43
2024/01/17 04:03:39;;;;;;;6.57;1.87;;;;;;;;;;6281750;22;20019;-44
2024/01/17 04:06:10;;;;;;;8.48;2.10;;;;;;;;;;6282045;22;20027;-43
2024/01/17 04:08:39;;;;;;;7.65;2.00;;;;;;;;;;6252590;22;20015;-46
2024/01/17 04:11:07;;;;;;;9.60;2.03;;;;;;;;;;6274664;22;20491;-43
2024/01/17 04:13:35;;;;;;;7.63;2.25;;;;;;;;;;6280208;22;20023;-45
2024/01/17 04:16:02;;;;;;;6.50;2.03;;;;;;;;;;6269533;22;20023;-43
2024/01/17 04:18:31;;;;;;;7.78;1.95;;;;;;;;;;6253953;22;20450;-43
2024/01/17 04:21:01;;;;;;;7.70;2.28;;;;;;;;;;6251493;22;20015;-45
2024/01/17 04:23:30;;;;;;;8.45;2.03;;;;;;;;;;6263908;22;20015;-43
2024/01/17 04:25:59;;;;;;;7.18;2.20;;;;;;;;;;6275805;22;20160;-44
2024/01/17 04:28:27;;;;;;;9.40;2.53;;;;;;;;;;6275076;22;20016;-43
2024/01/17 04:30:55;;;;;;;9.05;2.30;;;;;;;;;;6266828;22;20214;-43
2024/01/17 04:33:23;;;;;;;8.43;2.45;;;;;;;;;;6237341;22;20019;-43
2024/01/17 04:35:52;;;;;;;7.45;2.38;;;;;;;;;;6217227;22;20026;-44
2024/01/17 04:38:20;;;;;;;7.40;2.58;;;;;;;;;;6274915;22;20030;-44
2024/01/17 04:40:48;;;;;;;9.40;2.13;;;;;;;;;;6276677;22;20022;-43
2024/01/17 04:43:17;;;;;;;8.50;2.38;;;;;;;;;;6274321;22;20349;-43
2024/01/17 04:45:48;;;;;;;10.20;2.42;;;;;;;;;;6274205;22;20483;-42
2024/01/17 04:48:16;;;;;;;7.75;2.33;;;;;;;;;;6273338;22;20012;-44
2024/01/17 04:50:44;;;;;;;8.10;2.47;;;;;;;;;;6246633;22;20574;-43
2024/01/17 04:53:12;;;;;;;8.13;2.67;;;;;;;;;;6271145;22;20019;-43
2024/01/17 04:55:42;;;;;;;10.32;3.00;;;;;;;;;;6273649;22;20073;-43
2024/01/17 04:58:10;;;;;;;10.52;3.35;;;;;;;;;;6271596;22;20011;-43
2024/01/17 05:00:39;;;;;;;9.32;2.53;;;;;;;;;;6270443;22;20708;-44
2024/01/17 05:03:07;;;;;;;8.20;2.60;;;;;;;;;;6269005;22;20370;-44
2024/01/17 05:05:35;;;;;;;8.17;2.70;;;;;;;;;;6268841;22;20068;-43
2024/01/17 05:08:04;;;;;;;8.43;2.53;;;;;;;;;;6271624;22;20537;-43
2024/01/17 05:10:32;;;;;;;8.80;2.92;;;;;;;;;;6279388;22;20027;-43
2024/01/17 05:13:00;;;;;;;10.90;2.53;;;;;;;;;;6271882;22;20022;-43
2024/01/17 05:15:28;;;;;;;8.80;2.75;;;;;;;;;;6268618;22;20077;-44
2024/01/17 05:17:57;;;;;;;10.13;2.70;;;;;;;;;;6283412;22;20015;-43
2024/01/17 05:20:25;;;;;;;10.68;3.05;;;;;;;;;;6261468;22;20442;-43
2024/01/17 05:22:53;;;;;;;7.72;3.00;;;;;;;;;;6279178;22;20494;-43
2024/01/17 05:25:21;;;;;;;9.70;2.53;;;;;;;;;;6267967;22;20395;-45
2024/01/17 05:27:51;;;;;;;10.20;3.00;;;;;;;;;;6267091;22;20019;-43
2024/01/17 05:30:19;;;;;;;9.47;3.10;;;;;;;;;;6269138;22;20015;-45
2024/01/17 05:32:47;;;;;;;9.85;3.20;;;;;;;;;;6236319;22;20025;-45
2024/01/17 05:35:17;;;;;;;6.93;2.33;;;;;;;;;;6249905;22;20023;-43
2024/01/17 05:37:49;;;;;;;8.50;2.90;;;;;;;;;;6276225;22;20633;-44
2024/01/17 05:40:18;;;;;;;11.18;3.45;;;;;;;;;;6278352;22;20019;-43
2024/01/17 05:42:47;;;;;;;10.40;3.47;;;;;;;;;;6264234;22;20015;-43
2024/01/17 05:45:16;;;;;;;9.13;3.05;;;;;;;;;;6286143;22;20030;-42
2024/01/17 05:47:46;;;;;;;8.73;2.80;;;;;;;;;;6233586;22;20423;-43
2024/01/17 05:50:15;;;;;;;8.63;3.08;;;;;;;;;;6267633;22;20023;-43
2024/01/17 05:52:45;;;;;;;9.40;3.40;;;;;;;;;;6266394;22;20026;-42
2024/01/17 05:55:14;;;;;;;11.10;3.60;;;;;;;;;;6266888;22;20019;-42
2024/01/17 05:57:44;;;;;;;11.75;3.47;;;;;;;;;;6273917;22;20038;-43
2024/01/17 06:00:12;;;;;;;10.75;3.33;;;;;;;;;;6266330;22;20066;-42
2024/01/17 06:02:41;;;;;;;9.05;3.13;;;;;;;;;;6263071;22;20042;-44
2024/01/17 06:05:09;;;;;;;12.50;2.95;;;;;;;;;;6277048;22;20023;-43
2024/01/17 06:07:38;;;;;;;8.97;3.10;;;;;;;;;;6258529;22;20015;-43
2024/01/17 06:10:11;;;;;;;12.02;3.10;;;;;;;;;;6269481;22;20015;-44
2024/01/17 06:12:39;;;;;;;12.43;4.03;;;;;;;;;;6264671;22;20015;-43
2024/01/17 06:15:07;;;;;;;8.77;3.88;;;;;;;;;;6262169;22;20056;-43
2024/01/17 06:17:35;;;;;;;10.13;3.38;;;;;;;;;;6239231;22;20019;-43
2024/01/17 06:20:03;;;;;;;11.57;3.80;;;;;;;;;;6264678;22;20061;-43
2024/01/17 06:22:31;;;;;;;12.70;4.20;;;;;;;;;;6263862;22;20015;-43
2024/01/17 06:25:04;;;;;;;9.95;4.03;;;;;;;;;;6266077;22;20030;-44
2024/01/17 06:27:33;;;;;;;13.02;4.25;;;;;;;;;;6271994;22;20019;-43
2024/01/17 06:30:01;;;;;;;8.52;3.40;;;;;;;;;;6266239;22;20019;-43
2024/01/17 06:32:28;;;;;;;12.83;4.13;;;;;;;;;;6241244;22;20101;-43
2024/01/17 06:34:56;;;;;;;11.35;3.92;;;;;;;;;;6221821;22;20094;-45
2024/01/17 06:37:24;;;;;;;9.68;3.90;;;;;;;;;;6272124;22;20027;-43
2024/01/17 06:39:52;;;;;;;13.02;4.43;;;;;;;;;;6270757;22;20019;-43
2024/01/17 06:42:20;;;;;;;11.10;3.97;;;;;;;;;;6268322;22;20019;-43
2024/01/17 06:44:49;;;;;;;13.23;4.27;;;;;;;;;;6263946;22;20470;-45
2024/01/17 06:47:17;;;;;;;7.90;3.33;;;;;;;;;;6261660;22;20493;-43
2024/01/17 06:49:44;;;;;;;12.65;4.30;;;;;;;;;;6276258;22;20019;-43
2024/01/17 06:52:12;;;;;;;10.55;3.92;;;;;;;;;;6259367;22;20327;-44
2024/01/17 06:54:40;;;;;;;11.75;4.30;;;;;;;;;;6269684;22;20023;-43
2024/01/17 06:57:09;;;;;;;10.73;4.67;;;;;;;;;;6260517;22;20026;-43
2024/01/17 06:59:37;;;;;;;11.98;4.20;;;;;;;;;;6270097;22;20019;-43
2024/01/17 07:02:07;;;;;;;11.63;4.40;;;;;;;;;;6267398;22;20131;-45
2024/01/17 07:04:35;;;;;;;12.05;3.92;;;;;;;;;;6272451;22;20019;-43
2024/01/17 07:07:02;;;;;;;11.80;4.40;;;;;;;;;;6237017;22;20019;-44
2024/01/17 07:09:33;;;;;;;11.17;4.30;;;;;;;;;;6244646;22;20464;-44
2024/01/17 07:12:01;;;;;;;11.48;4.65;;;;;;;;;;6261679;22;20065;-44
2024/01/17 07:14:30;;;;;;;12.00;5.05;;;;;;;;;;6266232;22;20065;-44
2024/01/17 07:16:58;;;;;;;12.73;4.40;;;;;;;;;;6268726;22;20569;-43
2024/01/17 07:19:27;;;;;;;12.93;4.60;;;;;;;;;;6264431;22;20563;-43
2024/01/17 07:21:55;;;;;;;10.67;4.70;;;;;;;;;;6258928;22;20081;-44
2024/01/17 07:24:23;;;;;;;12.02;4.60;;;;;;;;;;6276704;22;20022;-44
2024/01/17 07:26:50;;;;;;;17.45;5.85;;;;;;;;;;6267136;22;20023;-45
2024/01/17 07:29:18;;;;;;;12.30;4.60;;;;;;;;;;6277343;22;20096;-46
2024/01/17 07:31:46;;;;;;;11.90;4.43;;;;;;;;;;6229912;22;20350;-44
2024/01/17 07:34:17;;;;;;;13.03;5.00;;;;;;;;;;6226507;22;20022;-43
2024/01/17 07:36:46;;;;;;;12.75;4.75;;;;;;;;;;6257382;22;20022;-45
2024/01/17 07:39:14;;;;;;;13.13;5.22;;;;;;;;;;6255934;22;20436;-42
2024/01/17 07:41:42;;;;;;;13.07;4.80;;;;;;;;;;6268601;22;20501;-43
2024/01/17 07:44:10;;;;;;;17.30;4.82;;;;;;;;;;6265680;22;20015;-44
2024/01/17 07:46:39;;;;;;;13.03;4.63;;;;;;;;;;6277307;22;20477;-45
2024/01/17 07:49:07;;;;;;;18.77;6.35;;;;;;;;;;6269842;22;20015;-45
2024/01/17 07:51:35;;;;;;;17.63;6.30;;;;;;;;;;6265598;22;20465;-43
2024/01/17 07:54:04;;;;;;;21.05;6.38;;;;;;;;;;6266305;22;20016;-43
2024/01/17 07:56:32;;;;;;;17.05;5.88;;;;;;;;;;6233697;22;20117;-45
2024/01/17 07:59:00;;;;;;;15.13;5.23;;;;;;;;;;6214521;22;1290071;-44
2024/01/17 08:01:29;;;;;;;13.93;4.90;;;;;;;;;;6271383;22;20015;-43
2024/01/17 08:03:57;;;;;;;13.07;4.90;;;;;;;;;;6255626;22;20462;-42
2024/01/17 08:06:25;;;;;;;16.05;5.22;;;;;;;;;;6265156;22;20027;-42
2024/01/17 08:08:53;;;;;;;16.60;5.80;;;;;;;;;;6267241;22;20015;-42
2024/01/17 08:11:23;;;;;;;15.40;4.63;;;;;;;;;;6273976;22;20011;-42
2024/01/17 08:13:50;;;;;;;15.85;4.90;;;;;;;;;;6261440;22;20098;-43
2024/01/17 08:16:18;;;;;;;15.55;5.38;;;;;;;;;;6276210;22;20030;-43
2024/01/17 08:18:46;;;;;;;16.15;4.82;;;;;;;;;;6269164;22;20022;-43
2024/01/17 08:21:14;;;;;;;13.53;5.27;;;;;;;;;;6277039;22;20049;-41
2024/01/17 08:23:43;;;;;;;11.27;4.63;;;;;;;;;;6234127;22;20405;-42
2024/01/17 08:26:11;;;;;;;12.07;4.45;;;;;;;;;;6263755;22;20023;-42
2024/01/17 08:28:40;;;;;;;9.80;4.05;;;;;;;;;;6254416;22;20026;-44
2024/01/17 08:31:12;;;;;;;10.85;4.18;;;;;;;;;;6254371;22;20750;-42
2024/01/17 08:33:48;;;;;;;12.97;4.27;;;;;;;;;;6224418;22;20077;-44
2024/01/17 08:36:23;;;;;;;9.90;3.97;;;;;;;;;;6233354;22;20843;-42
2024/01/17 08:38:51;;;;;;;14.00;4.47;;;;;;;;;;6260814;22;20015;-42
2024/01/17 08:41:19;;;;;;;13.18;3.95;;;;;;;;;;6255538;22;20019;-42
2024/01/17 08:43:48;;;;;;;10.93;3.88;;;;;;;;;;6216261;22;20469;-42
2024/01/17 08:46:17;;;;;;;10.73;4.33;;;;;;;;;;6262675;22;20019;-42
2024/01/17 08:48:45;;;;;;;14.52;4.88;;;;;;;;;;6247886;22;20026;-43
2024/01/17 08:51:13;;;;;;;13.63;5.10;;;;;;;;;;6259802;22;20025;-42
2024/01/17 08:53:41;;;;;;;10.40;4.50;;;;;;;;;;6261215;22;20023;-42
2024/01/17 08:56:13;;;;;;;16.13;5.88;;;;;;;;;;6235869;22;20039;-42
2024/01/17 08:58:42;;;;;;;20.63;6.13;;;;;;;;;;6254211;22;20019;-42
2024/01/17 09:01:11;;;;;;;15.48;5.75;;;;;;;;;;6241973;22;20042;-46
2024/01/17 09:03:39;;;;;;;16.45;6.72;;;;;;;;;;6253499;22;20102;-42
2024/01/17 09:06:07;;;;;;;14.55;4.60;;;;;;;;;;6241143;22;20050;-44
2024/01/17 09:08:37;;;;;;;13.57;4.22;;;;;;;;;;6248483;22;20274;-42
2024/01/17 09:11:06;;;;;;;9.97;4.40;;;;;;;;;;6227296;22;20460;-44
2024/01/17 09:13:33;;;;;;;10.63;4.50;;;;;;;;;;6198286;22;20094;-42
2024/01/17 09:16:01;;;;;;;12.93;4.65;;;;;;;;;;6253905;22;20019;-45
2024/01/17 09:18:30;;;;;;;12.38;4.60;;;;;;;;;;6245524;22;20235;-45
2024/01/17 09:20:58;;;;;;;15.18;5.25;;;;;;;;;;6246742;22;20015;-42
2024/01/17 09:23:26;;;;;;;10.83;4.60;;;;;;;;;;6249398;22;20061;-43
2024/01/17 09:25:54;;;;;;;10.70;4.80;;;;;;;;;;6244169;22;20027;-43
2024/01/17 09:28:22;;;;;;;13.68;4.57;;;;;;;;;;6216975;22;20034;-46
2024/01/17 09:30:50;;;;;;;12.65;4.82;;;;;;;;;;6259668;22;20015;-43
2024/01/17 09:33:20;;;;;;;10.90;4.60;;;;;;;;;;6217030;22;20450;-43
2024/01/17 09:35:50;;;;;;;11.70;4.83;;;;;;;;;;6203725;22;20107;-43
2024/01/17 09:38:29;;;;;;;11.15;4.72;;;;;;;;;;6210763;22;20346;-47
2024/01/17 09:40:57;;;;;;;11.70;5.05;;;;;;;;;;6243858;22;20019;-47
2024/01/17 09:43:25;;;;;;;13.93;4.97;;;;;;;;;;6238301;22;20094;-49
2024/01/17 09:45:54;;;;;;;12.38;4.55;;;;;;;;;;6214943;22;20019;-47
2024/01/17 09:48:25;;;;;;;12.67;4.30;;;;;;;;;;6251747;22;20562;-53
2024/01/17 09:50:54;;;;;;;10.13;4.45;;;;;;;;;;6224408;22;20057;-47
2024/01/17 09:53:25;;;;;;;12.38;4.03;;;;;;;;;;6247946;22;20023;-48
2024/01/17 09:55:54;;;;;;;10.98;3.67;;;;;;;;;;6216285;22;20594;-50
2024/01/17 09:58:24;;;;;;;10.07;3.85;;;;;;;;;;6206512;22;20015;-48
2024/01/17 10:00:52;;;;;;;11.33;3.87;;;;;;;;;;6250918;22;20019;-48
2024/01/17 10:03:21;;;;;;;11.68;3.97;;;;;;;;;;6253326;22;20038;-47
2024/01/17 10:05:49;;;;;;;9.60;3.90;;;;;;;;;;6216250;22;20030;-48
2024/01/17 10:08:22;;;;;;;9.85;4.00;;;;;;;;;;6252589;22;20437;-50
2024/01/17 10:10:50;;;;;;;10.40;3.35;;;;;;;;;;6243563;22;20110;-47
2024/01/17 10:13:18;;;;;;;10.40;3.90;;;;;;;;;;6250066;22;20038;-47
2024/01/17 10:15:46;;;;;;;9.05;4.10;;;;;;;;;;6248939;22;20042;-47
2024/01/17 10:18:16;;;;;;;10.35;4.00;;;;;;;;;;6209586;22;20019;-48
2024/01/17 10:20:44;;;;;;;10.00;3.67;;;;;;;;;;6226409;22;20106;-48
2024/01/17 10:23:13;;;;;;;10.98;3.80;;;;;;;;;;6224424;22;20096;-51
2024/01/17 10:25:43;;;;;;;11.63;4.20;;;;;;;;;;6237232;22;20528;-47
2024/01/17 10:28:11;;;;;;;10.80;3.63;;;;;;;;;;6239487;22;20030;-47
2024/01/17 10:30:41;;;;;;;10.32;3.85;;;;;;;;;;6210240;22;20621;-46
2024/01/17 10:33:09;;;;;;;11.52;3.47;;;;;;;;;;6185254;22;20471;-49
2024/01/17 10:35:37;;;;;;;10.77;3.53;;;;;;;;;;6189705;22;20094;-48
2024/01/17 10:38:05;;;;;;;9.57;3.90;;;;;;;;;;6222792;22;20019;-49
2024/01/17 10:40:33;;;;;;;10.95;3.45;;;;;;;;;;6233905;22;20019;-46
2024/01/17 10:43:09;;;;;;;11.85;3.72;;;;;;;;;;6243037;22;20030;-52
2024/01/17 10:45:42;;;;;;;9.48;3.17;;;;;;;;;;6236490;22;20031;-48
2024/01/17 10:48:11;;;;;;;10.20;3.50;;;;;;;;;;6216185;22;20023;-49
2024/01/17 10:50:39;;;;;;;9.63;3.30;;;;;;;;;;6251960;22;20019;-47
2024/01/17 10:53:08;;;;;;;9.93;3.28;;;;;;;;;;6234921;22;20019;-49
2024/01/17 10:55:38;;;;;;;12.00;3.65;;;;;;;;;;6236983;22;20065;-49
2024/01/17 10:58:10;;;;;;;11.15;3.53;;;;;;;;;;6248629;22;20096;-49
2024/01/17 11:00:39;;;;;;;9.93;2.92;;;;;;;;;;6246224;22;20513;-48
2024/01/17 11:03:09;;;;;;;13.10;3.43;;;;;;;;;;6250514;22;20081;-49
2024/01/17 11:05:43;;;;;;;9.80;3.00;;;;;;;;;;6228698;22;20015;-50
2024/01/17 11:08:12;;;;;;;8.80;3.28;;;;;;;;;;6230081;22;20019;-48
2024/01/17 11:10:41;;;;;;;13.10;4.10;;;;;;;;;;6236744;22;20026;-48
2024/01/17 11:13:10;;;;;;;12.20;3.42;;;;;;;;;;6250990;22;20020;-48
2024/01/17 11:15:59;;;;;;;11.77;4.03;;;;;;;;;;6251432;22;20181;-50
2024/01/17 11:18:29;;;;;;;14.05;3.97;;;;;;;;;;6249833;22;20607;-42
2024/01/17 11:20:59;;;;;;;11.82;4.05;;;;;;;;;;6263541;22;20019;-43
2024/01/17 11:23:28;;;;;;;11.85;4.70;;;;;;;;;;6231001;22;20019;-44
2024/01/17 11:26:11;;;;;;;11.57;4.53;;;;;;;;;;6238270;22;20027;-43
2024/01/17 11:28:44;;;;;;;13.27;4.40;;;;;;;;;;6225224;22;20311;-43
2024/01/17 11:31:18;;;;;;;13.63;4.22;;;;;;;;;;6252616;22;20015;-42
2024/01/17 11:33:46;;;;;;;13.02;5.10;;;;;;;;;;6236116;22;20019;-42
2024/01/17 11:36:29;;;;;;;15.98;4.78;;;;;;;;;;6253810;22;20104;-43
2024/01/17 11:38:57;;;;;;;17.27;4.72;;;;;;;;;;6250975;22;20122;-42
2024/01/17 11:41:25;;;;;;;15.17;5.00;;;;;;;;;;6207679;22;20444;-44
2024/01/17 11:43:55;;;;;;;15.93;5.18;;;;;;;;;;6251853;22;20015;-42
2024/01/17 11:46:23;;;;;;;14.23;4.65;;;;;;;;;;6257852;22;20022;-43
2024/01/17 11:48:53;;;;;;;16.52;5.50;;;;;;;;;;6245373;22;20581;-43
2024/01/17 11:51:25;;;;;;;13.35;5.43;;;;;;;;;;6219563;22;20047;-43
2024/01/17 11:53:53;;;;;;;15.83;5.83;;;;;;;;;;6237423;22;20474;-43
2024/01/17 11:56:22;;;;;;;13.80;6.03;;;;;;;;;;6231797;22;20057;-43
2024/01/17 11:58:51;;;;;;;14.35;5.35;;;;;;;;;;6230643;22;20019;-42
2024/01/17 12:01:24;;;;;;;15.60;6.13;;;;;;;;;;6256277;22;20096;-43
2024/01/17 12:03:52;;;;;;;13.40;5.13;;;;;;;;;;6241523;22;20354;-42
2024/01/17 12:06:21;;;;;;;16.27;5.80;;;;;;;;;;6217083;22;20122;-43
2024/01/17 12:08:49;;;;;;;17.65;5.95;;;;;;;;;;6243923;22;20068;-44
2024/01/17 12:11:17;;;;;;;17.17;6.55;;;;;;;;;;6217606;22;20047;-42
2024/01/17 12:13:52;;;;;;;17.63;5.47;;;;;;;;;;6196475;22;20030;-42
2024/01/17 12:16:28;;;;;;;14.57;5.63;;;;;;;;;;6241962;22;20043;-41
2024/01/17 12:18:58;;;;;;;12.20;5.10;;;;;;;;;;6240275;22;20015;-43
2024/01/17 12:21:26;;;;;;;11.52;4.45;;;;;;;;;;6243515;22;20636;-41
2024/01/17 12:23:54;;;;;;;16.73;5.90;;;;;;;;;;6244511;22;20336;-43
2024/01/17 12:26:22;;;;;;;14.60;4.85;;;;;;;;;;6230036;22;20345;-43
2024/01/17 12:28:50;;;;;;;13.70;5.82;;;;;;;;;;6227949;22;20043;-41
2024/01/17 12:31:18;;;;;;;14.10;5.70;;;;;;;;;;6230108;22;20021;-40
2024/01/17 12:33:48;;;;;;;13.30;5.82;;;;;;;;;;6235465;22;20509;-41
2024/01/17 12:36:19;;;;;;;11.93;5.15;;;;;;;;;;6217277;22;20038;-41
2024/01/17 12:38:51;;;;;;;14.60;5.45;;;;;;;;;;6233690;22;20019;-42
2024/01/17 12:41:19;;;;;;;13.43;4.90;;;;;;;;;;6242871;22;20094;-40
2024/01/17 12:43:47;;;;;;;15.83;4.87;;;;;;;;;;6212176;22;20095;-42
2024/01/17 12:46:16;;;;;;;15.15;5.40;;;;;;;;;;6208751;22;20706;-41
2024/01/17 12:48:53;;;;;;;13.77;5.22;;;;;;;;;;6237048;22;20019;-42
2024/01/17 12:51:21;;;;;;;13.82;5.72;;;;;;;;;;6257731;22;20653;-40
2024/01/17 12:53:49;;;;;;;14.18;5.75;;;;;;;;;;6235863;22;20015;-42
2024/01/17 12:56:17;;;;;;;11.60;4.90;;;;;;;;;;6208269;22;20102;-42
2024/01/17 12:58:45;;;;;;;12.93;5.00;;;;;;;;;;6246365;22;20022;-41
2024/01/17 13:01:13;;;;;;;12.15;4.90;;;;;;;;;;6262292;22;20456;-41
2024/01/17 13:03:44;;;;;;;13.27;5.00;;;;;;;;;;6234127;22;20110;-41
2024/01/17 13:06:14;;;;;;;12.82;5.40;;;;;;;;;;6242134;22;20529;-42
2024/01/17 13:08:45;;;;;;;14.50;5.53;;;;;;;;;;6258396;22;20461;-41
2024/01/17 13:11:17;;;;;;;16.65;5.25;;;;;;;;;;6239403;22;20461;-43
2024/01/17 13:13:46;;;;;;;13.07;5.10;;;;;;;;;;6250589;22;20020;-42
2024/01/17 13:16:15;;;;;;;13.60;4.97;;;;;;;;;;6253290;22;20015;-42
2024/01/17 13:18:43;;;;;;;12.25;5.18;;;;;;;;;;6247480;22;20997;-42
2024/01/17 13:21:27;;;;;;;16.60;5.93;;;;;;;;;;6231462;22;20027;-42
2024/01/17 13:23:56;;;;;;;14.30;5.35;;;;;;;;;;6221007;22;20441;-42
2024/01/17 13:26:23;;;;;;;13.27;5.47;;;;;;;;;;6244464;22;20030;-41
2024/01/17 13:28:52;;;;;;;13.38;5.78;;;;;;;;;;6210343;22;20505;-42
2024/01/17 13:31:23;;;;;;;13.88;5.65;;;;;;;;;;6204907;22;20019;-41
2024/01/17 13:33:51;;;;;;;14.80;5.53;;;;;;;;;;6243561;22;20441;-42
2024/01/17 13:36:21;;;;;;;14.60;5.63;;;;;;;;;;6245288;22;20015;-42
2024/01/17 13:38:49;;;;;;;14.55;5.55;;;;;;;;;;6242024;22;20891;-41
2024/01/17 13:41:17;;;;;;;14.20;5.93;;;;;;;;;;6236718;22;20019;-43
2024/01/17 13:43:45;;;;;;;15.40;5.20;;;;;;;;;;6226050;22;20286;-42
2024/01/17 13:46:13;;;;;;;16.60;5.40;;;;;;;;;;6244209;22;20016;-41
2024/01/17 13:48:49;;;;;;;13.27;5.25;;;;;;;;;;6229338;22;20114;-43
2024/01/17 13:51:18;;;;;;;15.88;5.50;;;;;;;;;;6234385;22;20019;-41
2024/01/17 13:53:53;;;;;;;15.90;6.20;;;;;;;;;;6256841;22;20015;-45
2024/01/17 13:56:21;;;;;;;15.73;5.63;;;;;;;;;;6260332;22;20054;-43
2024/01/17 13:58:49;;;;;;;18.03;6.30;;;;;;;;;;6226454;22;20455;-45
2024/01/17 14:01:34;;;;;;;13.95;6.13;;;;;;;;;;6236286;22;20024;-44
2024/01/17 14:04:03;;;;;;;15.27;5.75;;;;;;;;;;6242789;22;20763;-42
2024/01/17 14:06:31;;;;;;;14.20;5.70;;;;;;;;;;6258423;22;20015;-46
2024/01/17 14:09:03;;;;;;;13.20;5.90;;;;;;;;;;6221065;22;20525;-43
2024/01/17 14:11:31;;;;;;;16.13;5.73;;;;;;;;;;6257615;22;20408;-41
2024/01/17 14:13:59;;;;;;;12.32;5.55;;;;;;;;;;6264929;22;20030;-41
2024/01/17 14:16:27;;;;;;;17.48;4.97;;;;;;;;;;6260163;22;20015;-44
2024/01/17 14:18:56;;;;;;;12.50;5.50;;;;;;;;;;6258699;22;20019;-42
2024/01/17 14:21:24;;;;;;;10.82;4.60;;;;;;;;;;6274719;22;20161;-42
2024/01/17 14:23:52;;;;;;;12.27;4.67;;;;;;;;;;6264580;22;20019;-43
2024/01/17 14:26:21;;;;;;;10.35;4.00;;;;;;;;;;6258561;22;20022;-41
2024/01/17 14:28:49;;;;;;;10.13;3.95;;;;;;;;;;6262658;22;20026;-42
2024/01/17 14:31:17;;;;;;;10.07;4.43;;;;;;;;;;6251768;22;20016;-41
2024/01/17 14:33:48;;;;;;;10.32;3.92;;;;;;;;;;6238947;22;20019;-42
2024/01/17 14:36:17;;;;;;;13.00;4.13;;;;;;;;;;6268454;22;20019;-41
2024/01/17 14:38:45;;;;;;;9.35;3.65;;;;;;;;;;6247496;22;20011;-42
2024/01/17 14:41:12;;;;;;;9.68;3.63;;;;;;;;;;6247843;22;20418;-42
2024/01/17 14:43:42;;;;;;;9.32;3.60;;;;;;;;;;6268317;22;20073;-41
2024/01/17 14:46:10;;;;;;;10.13;3.58;;;;;;;;;;6269991;22;20019;-41
2024/01/17 14:48:38;;;;;;;12.87;3.73;;;;;;;;;;6258580;22;20019;-42